createdAt,value
2022-09-30T00:01:23.092Z,96.83
2022-09-30T00:03:50.073Z,93.83
2022-09-30T00:06:17.029Z,95.57
2022-09-30T00:08:43.824Z,102.37
2022-09-30T00:11:20.166Z,103.63
2022-09-30T00:13:50.517Z,101.60
2022-09-30T00:16:19.028Z,100.87
2022-09-30T00:18:45.817Z,101.23
2022-09-30T00:21:16.037Z,103.40
2022-09-30T00:23:44.130Z,106.63
2022-09-30T00:26:17.022Z,100.93
2022-09-30T00:28:46.104Z,96.57
2022-09-30T00:31:15.674Z,92.30
2022-09-30T00:33:43.485Z,96.00
2022-09-30T00:36:11.184Z,94.80
2022-09-30T00:38:38.037Z,97.07
2022-09-30T00:41:04.786Z,89.03
2022-09-30T00:43:51.645Z,91.00
2022-09-30T00:46:39.783Z,102.03
2022-09-30T00:49:24.266Z,88.10
2022-09-30T00:51:56.319Z,92.47
2022-09-30T00:54:28.515Z,91.93
2022-09-30T00:57:00.371Z,90.30
2022-09-30T00:59:34.914Z,90.17
2022-09-30T01:02:02.237Z,84.67
2022-09-30T01:04:32.184Z,82.67
2022-09-30T01:07:04.293Z,90.30
2022-09-30T01:09:34.476Z,86.03
2022-09-30T01:12:06.355Z,90.80
2022-09-30T01:14:33.405Z,91.17
2022-09-30T01:17:20.713Z,78.37
2022-09-30T01:20:29.305Z,74.90
2022-09-30T01:23:14.532Z,73.47
2022-09-30T01:26:17.301Z,68.37
2022-09-30T01:29:02.280Z,69.43
2022-09-30T01:31:50.431Z,65.63
2022-09-30T01:34:52.421Z,65.23
2022-09-30T01:37:51.219Z,67.93
2022-09-30T01:40:31.045Z,64.10
2022-09-30T01:43:16.604Z,69.60
2022-09-30T01:45:51.401Z,69.93
2022-09-30T01:48:26.260Z,72.07
2022-09-30T01:51:12.389Z,75.30
2022-09-30T01:53:54.987Z,68.83
2022-09-30T01:56:35.351Z,65.33
2022-09-30T01:59:11.440Z,63.97
2022-09-30T02:01:49.690Z,69.10
2022-09-30T02:04:29.211Z,66.57
2022-09-30T02:07:02.210Z,61.27
2022-09-30T02:09:36.536Z,68.03
2022-09-30T02:12:06.929Z,63.13
2022-09-30T02:14:44.902Z,65.00
2022-09-30T02:17:23.444Z,60.17
2022-09-30T02:20:14.137Z,63.73
2022-09-30T02:22:52.193Z,63.00
2022-09-30T02:25:27.293Z,54.77
2022-09-30T02:27:59.170Z,55.43
2022-09-30T02:30:26.209Z,57.33
2022-09-30T02:32:59.090Z,55.83
2022-09-30T02:35:32.453Z,54.87
2022-09-30T02:38:05.692Z,54.53
2022-09-30T02:40:53.868Z,60.93
2022-09-30T02:43:21.350Z,60.13
2022-09-30T02:46:03.296Z,58.93
2022-09-30T02:48:43.992Z,55.90
2022-09-30T02:51:15.691Z,60.40
2022-09-30T02:54:05.912Z,61.17
2022-09-30T02:56:54.353Z,62.37
2022-09-30T02:59:22.813Z,60.87
2022-09-30T03:01:49.934Z,61.10
2022-09-30T03:04:22.945Z,61.63
2022-09-30T03:06:50.263Z,60.40
2022-09-30T03:09:17.562Z,61.00
2022-09-30T03:11:45.232Z,61.20
2022-09-30T03:14:20.529Z,60.93
2022-09-30T03:17:09.313Z,58.27
2022-09-30T03:20:05.526Z,64.53
2022-09-30T03:22:59.099Z,56.83
2022-09-30T03:25:37.862Z,54.90
2022-09-30T03:28:15.344Z,55.73
2022-09-30T03:31:17.094Z,56.30
2022-09-30T03:33:52.309Z,52.57
2022-09-30T03:36:31.553Z,56.50
2022-09-30T03:39:13.274Z,56.00
2022-09-30T03:41:58.120Z,55.40
2022-09-30T03:44:46.604Z,51.97
2022-09-30T03:47:16.683Z,50.70
2022-09-30T03:49:53.141Z,51.83
2022-09-30T03:52:20.392Z,52.33
2022-09-30T03:54:56.494Z,53.73
2022-09-30T03:57:23.221Z,54.80
2022-09-30T03:59:50.322Z,50.43
2022-09-30T04:02:17.035Z,48.63
2022-09-30T04:04:43.901Z,55.10
2022-09-30T04:07:11.344Z,53.07
2022-09-30T04:09:38.742Z,47.17
2022-09-30T04:12:06.205Z,47.83
2022-09-30T04:14:33.743Z,52.03
2022-09-30T04:17:03.600Z,49.00
2022-09-30T04:19:30.939Z,45.30
2022-09-30T04:21:57.661Z,53.73
2022-09-30T04:24:25.023Z,55.43
2022-09-30T04:26:51.952Z,51.57
2022-09-30T04:29:18.661Z,53.87
2022-09-30T04:31:45.447Z,55.50
2022-09-30T04:34:12.338Z,50.47
2022-09-30T04:36:39.339Z,55.67
2022-09-30T04:39:06.008Z,52.37
2022-09-30T04:41:34.245Z,54.70
2022-09-30T04:44:06.153Z,69.47
2022-09-30T04:46:36.881Z,69.57
2022-09-30T04:49:08.725Z,61.93
2022-09-30T04:51:36.441Z,65.80
2022-09-30T04:54:03.366Z,61.33
2022-09-30T04:56:30.190Z,59.23
2022-09-30T04:58:57.407Z,55.20
2022-09-30T05:01:24.258Z,57.17
2022-09-30T05:03:51.030Z,60.73
2022-09-30T05:06:18.119Z,48.33
2022-09-30T05:08:46.309Z,49.57
2022-09-30T05:11:21.364Z,52.63
2022-09-30T05:13:49.065Z,52.00
2022-09-30T05:16:16.274Z,53.37
2022-09-30T05:18:45.923Z,57.00
2022-09-30T05:21:14.955Z,59.50
2022-09-30T05:23:41.646Z,63.50
2022-09-30T05:26:11.955Z,61.27
2022-09-30T05:28:39.784Z,60.53
2022-09-30T05:31:06.734Z,58.00
2022-09-30T05:33:35.782Z,62.13
2022-09-30T05:36:05.664Z,161.43
2022-09-30T05:38:32.996Z,189.90
2022-09-30T05:41:11.348Z,157.80
2022-09-30T05:43:42.566Z,141.93
2022-09-30T05:46:09.413Z,122.83
2022-09-30T05:48:36.320Z,126.10
2022-09-30T05:51:03.821Z,125.07
2022-09-30T05:53:32.251Z,123.20
2022-09-30T05:55:59.636Z,98.07
2022-09-30T05:58:27.631Z,98.30
2022-09-30T06:00:54.603Z,94.00
2022-09-30T06:03:21.472Z,82.40
2022-09-30T06:05:48.411Z,80.77
2022-09-30T06:08:15.793Z,63.77
2022-09-30T06:10:44.149Z,75.33
2022-09-30T06:13:11.747Z,65.30
2022-09-30T06:15:41.303Z,69.10
2022-09-30T06:18:08.618Z,77.50
2022-09-30T06:20:35.787Z,74.47
2022-09-30T06:23:03.289Z,71.37
2022-09-30T06:25:31.248Z,76.50
2022-09-30T06:27:58.484Z,74.30
2022-09-30T06:30:25.898Z,72.67
2022-09-30T06:32:56.053Z,66.83
2022-09-30T06:35:24.819Z,66.20
2022-09-30T06:37:52.380Z,72.47
2022-09-30T06:40:21.238Z,70.50
2022-09-30T06:42:48.704Z,71.13
2022-09-30T06:45:27.807Z,65.00
2022-09-30T06:48:02.368Z,68.47
2022-09-30T06:50:33.214Z,75.33
2022-09-30T06:53:06.318Z,71.40
2022-09-30T06:55:33.989Z,61.90
2022-09-30T06:58:00.720Z,73.73
2022-09-30T07:00:28.689Z,70.73
2022-09-30T07:02:56.736Z,62.60
2022-09-30T07:05:25.715Z,58.40
2022-09-30T07:07:53.780Z,57.57
2022-09-30T07:10:21.216Z,59.70
2022-09-30T07:12:54.416Z,56.57
2022-09-30T07:15:23.288Z,54.13
2022-09-30T07:17:56.884Z,60.17
2022-09-30T07:20:24.125Z,58.67
2022-09-30T07:22:51.420Z,61.17
2022-09-30T07:25:18.783Z,60.33
2022-09-30T07:27:46.805Z,59.43
2022-09-30T07:30:22.774Z,56.77
2022-09-30T07:32:53.536Z,53.33
2022-09-30T07:35:20.769Z,61.17
2022-09-30T07:37:47.722Z,54.97
2022-09-30T07:40:15.265Z,56.33
2022-09-30T07:42:45.836Z,51.20
2022-09-30T07:45:17.064Z,53.73
2022-09-30T07:47:43.839Z,56.40
2022-09-30T07:50:10.976Z,53.70
2022-09-30T07:52:37.807Z,56.33
2022-09-30T07:55:04.971Z,59.17
2022-09-30T07:57:31.661Z,48.00
2022-09-30T07:59:58.634Z,47.67
2022-09-30T08:02:25.383Z,49.33
2022-09-30T08:04:52.153Z,50.73
2022-09-30T08:07:19.575Z,57.87
2022-09-30T08:09:46.442Z,64.97
2022-09-30T08:12:13.269Z,83.43
2022-09-30T08:14:40.093Z,88.50
2022-09-30T08:17:06.933Z,59.57
2022-09-30T08:19:34.056Z,52.53
2022-09-30T08:24:32.998Z,44.03
2022-09-30T08:26:59.834Z,46.13
2022-09-30T08:29:53.335Z,45.13
2022-09-30T08:32:13.851Z,42.80
2022-09-30T08:34:40.615Z,44.17
2022-09-30T08:37:09.547Z,39.60
2022-09-30T08:39:37.751Z,39.37
2022-09-30T08:42:36.801Z,35.60
2022-09-30T08:45:26.507Z,34.77
2022-09-30T08:48:13.781Z,36.20
2022-09-30T08:50:43.289Z,33.13
2022-09-30T08:53:15.509Z,30.37
2022-09-30T08:55:45.292Z,28.33
2022-09-30T08:58:26.983Z,27.03
2022-09-30T09:01:17.695Z,23.53
2022-09-30T09:03:45.905Z,24.13
2022-09-30T09:06:27.425Z,24.23
2022-09-30T09:09:32.759Z,23.37
2022-09-30T09:12:15.682Z,20.67
2022-09-30T09:14:50.664Z,21.07
2022-09-30T09:18:21.395Z,23.97
2022-09-30T09:20:53.167Z,25.47
2022-09-30T09:23:20.531Z,20.87
2022-09-30T09:25:52.978Z,25.30
2022-09-30T09:28:44.848Z,30.87
2022-09-30T09:31:17.745Z,29.97
2022-09-30T09:33:44.678Z,30.15
2022-09-30T09:36:16.919Z,23.92
2022-09-30T09:38:58.878Z,29.05
2022-09-30T09:41:34.215Z,50.05
2022-09-30T09:44:01.144Z,29.17
2022-09-30T09:47:04.867Z,25.00
2022-09-30T09:49:37.155Z,19.77
2022-09-30T09:52:12.698Z,24.30
2022-09-30T09:54:45.308Z,28.08
2022-09-30T09:57:15.765Z,24.65
2022-09-30T10:00:24.638Z,24.10
2022-09-30T10:03:01.986Z,34.95
2022-09-30T10:05:30.589Z,20.15
2022-09-30T10:08:18.953Z,21.45
2022-09-30T10:10:52.443Z,21.30
2022-09-30T10:13:25.302Z,34.58
2022-09-30T10:15:57.581Z,24.85
2022-09-30T10:18:35.863Z,17.73
2022-09-30T10:21:18.848Z,20.42
2022-09-30T10:23:45.585Z,21.83
2022-09-30T10:26:15.322Z,22.45
2022-09-30T10:28:46.960Z,18.35
2022-09-30T10:31:38.136Z,19.60
2022-09-30T10:34:23.694Z,18.80
2022-09-30T10:36:51.632Z,16.38
2022-09-30T10:39:26.869Z,17.35
2022-09-30T10:42:26.649Z,22.02
2022-09-30T10:45:16.492Z,20.88
2022-09-30T10:47:46.323Z,20.48
2022-09-30T10:50:17.284Z,19.92
2022-09-30T10:53:20.693Z,18.65
2022-09-30T10:55:47.566Z,16.58
2022-09-30T10:58:43.947Z,18.08
2022-09-30T11:01:18.429Z,15.48
2022-09-30T11:04:14.483Z,13.32
2022-09-30T11:06:42.683Z,14.02
2022-09-30T11:09:19.423Z,14.23
2022-09-30T11:11:53.227Z,11.25
2022-09-30T11:14:41.981Z,13.43
2022-09-30T11:17:28.363Z,11.25
2022-09-30T11:20:11.818Z,9.38
2022-09-30T11:23:12.688Z,7.90
2022-09-30T11:25:48.453Z,9.25
2022-09-30T11:28:25.396Z,10.35
2022-09-30T11:30:56.942Z,12.95
2022-09-30T11:33:32.683Z,12.00
2022-09-30T11:36:08.193Z,19.55
2022-09-30T11:38:44.568Z,14.70
2022-09-30T11:41:36.536Z,12.73
2022-09-30T11:44:18.541Z,18.30
2022-09-30T11:47:17.168Z,17.50
2022-09-30T11:49:56.425Z,15.77
2022-09-30T11:52:44.678Z,14.20
2022-09-30T11:55:31.994Z,15.35
2022-09-30T11:58:29.033Z,28.65
2022-09-30T12:01:15.102Z,14.32
2022-09-30T12:03:46.318Z,12.65
2022-09-30T12:06:27.715Z,10.63
2022-09-30T12:09:01.568Z,13.77
2022-09-30T12:11:40.230Z,14.63
2022-09-30T12:14:16.931Z,9.73
2022-09-30T12:16:46.972Z,10.32
2022-09-30T12:19:15.949Z,6.50
2022-09-30T12:21:50.601Z,8.00
2022-09-30T12:24:44.875Z,10.10
2022-09-30T12:27:21.429Z,6.88
2022-09-30T12:30:15.865Z,7.40
2022-09-30T12:33:07.147Z,10.10
2022-09-30T12:35:52.750Z,8.77
2022-09-30T12:38:27.579Z,10.18
2022-09-30T12:41:05.944Z,10.32
2022-09-30T12:43:57.784Z,12.13
2022-09-30T12:46:49.195Z,14.10
2022-09-30T12:49:23.593Z,10.68
2022-09-30T12:51:55.473Z,14.52
2022-09-30T12:54:27.987Z,13.20
2022-09-30T12:57:00.538Z,13.30
2022-09-30T12:59:31.031Z,16.38
2022-09-30T13:02:00.861Z,15.45
2022-09-30T13:04:35.219Z,13.80
2022-09-30T13:07:01.841Z,14.05
2022-09-30T13:09:36.621Z,14.80
2022-09-30T13:12:03.276Z,15.20
2022-09-30T13:14:32.994Z,18.58
2022-09-30T13:17:08.810Z,15.50
2022-09-30T13:19:42.645Z,17.75
2022-09-30T13:22:18.236Z,16.70
2022-09-30T13:25:12.098Z,18.85
2022-09-30T13:27:51.559Z,17.98
2022-09-30T13:30:18.426Z,16.83
2022-09-30T13:32:48.159Z,35.47
2022-09-30T13:35:35.352Z,48.28
2022-09-30T13:38:21.821Z,21.33
2022-09-30T13:41:02.674Z,20.90
2022-09-30T13:43:43.314Z,17.98
2022-09-30T13:46:43.106Z,14.43
2022-09-30T13:49:19.801Z,15.07
2022-09-30T13:51:46.994Z,16.55
2022-09-30T13:54:31.977Z,15.18
2022-09-30T13:57:00.916Z,14.20
2022-09-30T14:00:04.463Z,16.38
2022-09-30T14:03:03.948Z,16.85
2022-09-30T14:06:02.907Z,16.60
2022-09-30T14:08:38.513Z,17.23
2022-09-30T14:11:05.272Z,19.92
2022-09-30T14:14:08.187Z,16.75
2022-09-30T14:16:48.989Z,27.52
2022-09-30T14:19:51.249Z,16.80
2022-09-30T14:22:20.450Z,21.08
2022-09-30T14:24:50.577Z,16.13
2022-09-30T14:27:22.567Z,15.95
2022-09-30T14:30:03.140Z,15.50
2022-09-30T14:32:43.546Z,12.63
2022-09-30T14:35:17.007Z,16.38
2022-09-30T14:37:48.558Z,17.33
2022-09-30T14:40:30.380Z,16.20
2022-09-30T14:43:06.734Z,17.83
2022-09-30T14:45:38.977Z,17.95
2022-09-30T14:48:16.967Z,17.58
2022-09-30T14:51:05.679Z,18.08
2022-09-30T14:53:35.236Z,21.25
2022-09-30T14:56:05.028Z,16.15
2022-09-30T14:58:42.342Z,17.77
2022-09-30T15:01:15.372Z,16.05
2022-09-30T15:03:49.055Z,19.77
2022-09-30T15:06:22.052Z,20.42
2022-09-30T15:08:50.553Z,23.20
2022-09-30T15:11:24.135Z,24.35
2022-09-30T15:13:58.994Z,23.75
2022-09-30T15:16:27.961Z,24.73
2022-09-30T15:18:55.144Z,25.80
2022-09-30T15:21:24.091Z,21.98
2022-09-30T15:23:57.049Z,22.00
2022-09-30T15:26:25.715Z,18.63
2022-09-30T15:28:52.804Z,22.42
2022-09-30T15:31:29.309Z,25.33
2022-09-30T15:34:03.655Z,24.38
2022-09-30T15:36:30.763Z,25.23
2022-09-30T15:38:57.870Z,24.95
2022-09-30T15:41:24.708Z,25.45
2022-09-30T15:43:53.928Z,28.10
2022-09-30T15:46:27.876Z,28.88
2022-09-30T15:48:59.142Z,22.90
2022-09-30T15:51:30.302Z,27.92
2022-09-30T15:54:00.882Z,24.40
2022-09-30T15:56:34.366Z,26.27
2022-09-30T15:59:11.791Z,23.88
2022-09-30T16:01:50.655Z,31.02
2022-09-30T16:04:17.334Z,29.05
2022-09-30T16:07:11.221Z,34.20
2022-09-30T16:09:40.665Z,43.28
2022-09-30T16:12:09.965Z,31.17
2022-09-30T16:14:48.890Z,27.05
2022-09-30T16:17:19.522Z,32.45
2022-09-30T16:19:57.977Z,33.15
2022-09-30T16:22:49.519Z,28.63
2022-09-30T16:25:26.548Z,28.17
2022-09-30T16:28:01.031Z,22.02
2022-09-30T16:30:32.200Z,16.37
2022-09-30T16:33:02.984Z,19.00
2022-09-30T16:35:29.846Z,20.45
2022-09-30T16:38:06.631Z,24.80
2022-09-30T16:40:35.741Z,28.47
2022-09-30T16:43:07.529Z,46.03
2022-09-30T16:45:35.191Z,64.33
2022-09-30T16:48:05.442Z,124.93
2022-09-30T16:50:40.112Z,169.57
2022-09-30T16:53:06.965Z,209.77
2022-09-30T16:55:33.750Z,229.60
2022-09-30T16:58:00.892Z,210.40
2022-09-30T17:00:29.085Z,188.53
2022-09-30T17:02:55.898Z,203.93
2022-09-30T17:05:25.469Z,236.77
2022-09-30T17:07:57.883Z,250.13
2022-09-30T17:10:30.501Z,230.63
2022-09-30T17:13:02.259Z,176.13
2022-09-30T17:15:30.507Z,158.03
2022-09-30T17:17:58.771Z,137.93
2022-09-30T17:20:26.469Z,133.47
2022-09-30T17:22:53.369Z,135.17
2022-09-30T17:25:20.152Z,121.93
2022-09-30T17:27:54.050Z,115.60
2022-09-30T17:30:21.382Z,117.27
2022-09-30T17:32:48.565Z,118.73
2022-09-30T17:35:15.308Z,122.00
2022-09-30T17:37:45.389Z,133.37
2022-09-30T17:40:32.261Z,136.17
2022-09-30T17:43:08.567Z,153.47
2022-09-30T17:45:36.674Z,148.30
2022-09-30T17:48:04.696Z,135.43
2022-09-30T17:50:31.358Z,134.60
2022-09-30T17:52:58.034Z,110.67
2022-09-30T17:55:24.978Z,106.17
2022-09-30T17:57:53.657Z,120.97
2022-09-30T18:00:20.690Z,132.80
2022-09-30T18:02:48.256Z,152.17
2022-09-30T18:05:15.680Z,157.10
2022-09-30T18:07:43.010Z,187.07
2022-09-30T18:10:09.851Z,173.70
2022-09-30T18:12:36.531Z,154.30
2022-09-30T18:15:03.835Z,145.57
2022-09-30T18:17:31.044Z,129.80
2022-09-30T18:19:57.708Z,112.10
2022-09-30T18:22:24.393Z,97.50
2022-09-30T18:25:09.915Z,90.80
2022-09-30T18:27:36.641Z,82.33
2022-09-30T18:30:05.168Z,90.60
2022-09-30T18:32:32.559Z,79.00
2022-09-30T18:34:59.211Z,89.53
2022-09-30T18:37:28.655Z,95.67
2022-09-30T18:39:55.307Z,93.80
2022-09-30T18:42:21.996Z,101.23
2022-09-30T18:44:48.946Z,86.50
2022-09-30T18:47:17.157Z,91.23
2022-09-30T18:49:47.168Z,91.87
2022-09-30T18:52:13.890Z,90.23
2022-09-30T18:54:40.644Z,84.53
2022-09-30T18:57:07.475Z,86.20
2022-09-30T18:59:35.343Z,86.73
2022-09-30T19:02:04.237Z,82.87
2022-09-30T19:04:31.219Z,89.47
2022-09-30T19:06:58.019Z,88.70
2022-09-30T19:09:26.604Z,79.10
2022-09-30T19:11:53.933Z,72.30
2022-09-30T19:14:21.019Z,79.60
2022-09-30T19:16:47.975Z,92.37
2022-09-30T19:19:15.366Z,106.27
2022-09-30T19:21:42.234Z,103.53
2022-09-30T19:24:09.312Z,107.53
2022-09-30T19:26:37.938Z,103.40
2022-09-30T19:29:07.831Z,103.03
2022-09-30T19:31:36.804Z,106.57
2022-09-30T19:34:04.333Z,107.93
2022-09-30T19:36:39.259Z,111.03
2022-09-30T19:39:12.494Z,100.30
2022-09-30T19:41:39.906Z,95.83
2022-09-30T19:44:06.665Z,102.50
2022-09-30T19:46:33.634Z,108.03
2022-09-30T19:49:00.317Z,106.87
2022-09-30T19:51:31.123Z,106.67
2022-09-30T19:54:06.105Z,108.73
2022-09-30T19:56:35.044Z,95.77
2022-09-30T19:59:02.100Z,91.60
2022-09-30T20:01:30.057Z,94.30
2022-09-30T20:04:00.165Z,99.17
2022-09-30T20:06:28.229Z,94.80
2022-09-30T20:08:59.095Z,102.47
2022-09-30T20:11:29.402Z,124.80
2022-09-30T20:14:16.380Z,122.03
2022-09-30T20:16:43.795Z,117.23
2022-09-30T20:19:11.516Z,120.43
2022-09-30T20:21:38.726Z,120.27
2022-09-30T20:24:05.822Z,129.70
2022-09-30T20:26:34.382Z,126.03
2022-09-30T20:29:01.346Z,126.00
2022-09-30T20:31:28.605Z,110.23
2022-09-30T20:33:57.148Z,109.30
2022-09-30T20:36:25.359Z,97.00
2022-09-30T20:38:59.178Z,95.63
2022-09-30T20:41:35.024Z,113.43
2022-09-30T20:44:03.712Z,107.43
2022-09-30T20:46:33.522Z,115.60
2022-09-30T20:49:01.144Z,123.80
2022-09-30T20:51:29.584Z,104.67
2022-09-30T20:53:58.073Z,93.20
2022-09-30T20:56:26.179Z,77.53
2022-09-30T20:58:54.851Z,67.90
2022-09-30T21:01:23.143Z,61.03
2022-09-30T21:03:52.621Z,62.43
2022-09-30T21:06:24.013Z,62.87
2022-09-30T21:08:51.865Z,66.93
2022-09-30T21:11:19.347Z,62.47
2022-09-30T21:13:48.547Z,67.30
2022-09-30T21:16:17.186Z,54.17
2022-09-30T21:18:44.622Z,52.40
2022-09-30T21:21:13.506Z,50.70
2022-09-30T21:23:40.987Z,49.77
2022-09-30T21:26:15.955Z,49.03
2022-09-30T21:28:46.812Z,43.67
2022-09-30T21:31:27.669Z,43.30
2022-09-30T21:33:58.304Z,43.27
2022-09-30T21:36:26.659Z,43.20
2022-09-30T21:38:54.953Z,48.97
2022-09-30T21:41:22.959Z,47.53
2022-09-30T21:43:49.911Z,47.77
2022-09-30T21:46:18.536Z,49.17
2022-09-30T21:48:46.167Z,47.17
2022-09-30T21:51:13.886Z,49.23
2022-09-30T21:53:41.527Z,55.27
2022-09-30T21:56:11.384Z,50.97
2022-09-30T21:58:38.425Z,53.13
2022-09-30T22:01:06.109Z,62.97
2022-09-30T22:03:38.593Z,59.83
2022-09-30T22:06:08.225Z,64.33
2022-09-30T22:08:40.091Z,79.20
2022-09-30T22:11:12.637Z,79.43
2022-09-30T22:13:42.370Z,72.50
2022-09-30T22:16:09.764Z,67.87
2022-09-30T22:18:37.026Z,65.53
2022-09-30T22:21:10.399Z,62.93
2022-09-30T22:23:37.227Z,68.27
2022-09-30T22:26:18.182Z,63.73
2022-09-30T22:28:46.406Z,67.03
2022-09-30T22:31:19.429Z,56.53
2022-09-30T22:34:06.054Z,55.53
2022-09-30T22:36:51.523Z,73.17
2022-09-30T22:39:18.536Z,61.27
2022-09-30T22:41:45.207Z,63.87
2022-09-30T22:44:12.056Z,72.43
2022-09-30T22:46:39.970Z,78.13
2022-09-30T22:49:07.052Z,83.53
2022-09-30T22:51:34.026Z,82.77
2022-09-30T22:54:03.345Z,90.07
2022-09-30T22:56:30.597Z,87.00
2022-09-30T22:58:58.188Z,97.40
2022-09-30T23:01:25.056Z,90.87
2022-09-30T23:03:54.046Z,69.23
2022-09-30T23:06:22.842Z,61.13
2022-09-30T23:08:50.283Z,56.67
2022-09-30T23:11:18.602Z,58.00
2022-09-30T23:13:46.402Z,56.37
2022-09-30T23:16:14.893Z,59.10
2022-09-30T23:18:41.952Z,52.03
2022-09-30T23:21:11.992Z,54.10
2022-09-30T23:23:42.148Z,58.83
2022-09-30T23:26:12.803Z,68.23
2022-09-30T23:28:40.218Z,70.50
2022-09-30T23:31:10.210Z,65.60
2022-09-30T23:33:39.053Z,68.33
2022-09-30T23:36:07.491Z,63.70
2022-09-30T23:38:34.421Z,53.40
2022-09-30T23:41:01.247Z,47.83
2022-09-30T23:43:30.432Z,43.90
2022-09-30T23:45:58.343Z,46.57
2022-09-30T23:48:25.190Z,44.33
2022-09-30T23:50:53.110Z,45.90
2022-09-30T23:53:22.221Z,47.33
2022-09-30T23:56:00.877Z,42.90
2022-09-30T23:58:27.837Z,43.83
